createdAt,value
2018-12-08T00:01:28.892Z,100.00
2018-12-08T00:03:56.143Z,100.00
2018-12-08T00:06:23.311Z,100.00
2018-12-08T00:08:50.472Z,100.00
2018-12-08T00:11:17.676Z,100.00
2018-12-08T00:13:44.856Z,100.00
2018-12-08T00:16:12.050Z,100.00
2018-12-08T00:18:39.284Z,100.00
2018-12-08T00:21:06.423Z,100.00
2018-12-08T00:23:33.623Z,100.00
2018-12-08T00:26:00.803Z,100.00
2018-12-08T00:28:27.967Z,100.00
2018-12-08T00:31:06.599Z,100.00
2018-12-08T00:33:33.773Z,100.00
2018-12-08T00:36:00.916Z,100.00
2018-12-08T00:38:28.111Z,100.00
2018-12-08T00:40:55.300Z,100.00
2018-12-08T00:43:22.467Z,100.00
2018-12-08T00:45:49.669Z,100.00
2018-12-08T00:48:16.840Z,100.00
2018-12-08T00:50:44.105Z,100.00
2018-12-08T00:53:11.407Z,100.00
2018-12-08T00:55:38.571Z,100.00
2018-12-08T00:58:05.796Z,100.00
2018-12-08T01:00:33.039Z,100.00
2018-12-08T01:03:00.229Z,100.00
2018-12-08T01:05:27.488Z,100.00
2018-12-08T01:07:54.687Z,100.00
2018-12-08T01:10:21.864Z,100.00
2018-12-08T01:12:49.021Z,100.00
2018-12-08T01:15:16.223Z,100.00
2018-12-08T01:17:43.342Z,100.00
2018-12-08T01:20:10.611Z,100.00
2018-12-08T01:22:37.787Z,100.00
2018-12-08T01:25:05.102Z,100.00
2018-12-08T01:27:32.267Z,100.00
2018-12-08T01:29:59.451Z,100.00
2018-12-08T01:32:26.603Z,100.00
2018-12-08T01:34:53.762Z,100.00
2018-12-08T01:37:20.975Z,100.00
2018-12-08T01:39:48.141Z,100.00
2018-12-08T01:42:15.407Z,100.00
2018-12-08T01:44:42.604Z,100.00
2018-12-08T01:47:09.772Z,100.00
2018-12-08T01:49:36.906Z,100.00
2018-12-08T01:52:23.657Z,100.00
2018-12-08T01:54:50.876Z,99.47
2018-12-08T01:57:18.031Z,98.63
2018-12-08T01:59:45.215Z,98.01
2018-12-08T02:02:12.637Z,98.54
2018-12-08T02:04:39.780Z,97.81
2018-12-08T02:07:06.994Z,96.14
2018-12-08T02:09:34.110Z,96.63
2018-12-08T02:12:01.250Z,96.11
2018-12-08T02:14:28.526Z,96.91
2018-12-08T02:16:55.796Z,96.01
2018-12-08T02:19:23.104Z,96.41
2018-12-08T02:21:50.274Z,97.07
2018-12-08T02:24:17.504Z,94.62
2018-12-08T02:26:44.687Z,96.68
2018-12-08T02:29:11.896Z,96.29
2018-12-08T02:31:39.043Z,94.51
2018-12-08T02:34:06.197Z,95.84
2018-12-08T02:36:33.405Z,95.56
2018-12-08T02:39:00.687Z,94.61
2018-12-08T02:41:27.814Z,95.14
2018-12-08T02:43:55.027Z,94.19
2018-12-08T02:46:22.173Z,94.87
2018-12-08T02:48:49.335Z,92.85
2018-12-08T02:51:16.579Z,94.24
2018-12-08T02:53:43.758Z,92.63
2018-12-08T02:56:10.898Z,92.87
2018-12-08T02:58:38.151Z,93.63
2018-12-08T03:01:05.296Z,93.29
2018-12-08T03:03:32.530Z,93.58
2018-12-08T03:05:59.814Z,92.41
2018-12-08T03:08:26.980Z,92.01
2018-12-08T03:10:54.128Z,90.87
2018-12-08T03:13:21.321Z,90.06
2018-12-08T03:15:48.507Z,88.88
2018-12-08T03:18:15.676Z,88.75
2018-12-08T03:20:42.851Z,88.07
2018-12-08T03:23:10.201Z,88.12
2018-12-08T03:25:37.445Z,85.49
2018-12-08T03:28:04.779Z,85.40
2018-12-08T03:30:31.946Z,85.17
2018-12-08T03:32:59.271Z,85.35
2018-12-08T03:35:26.592Z,85.14
2018-12-08T03:37:53.746Z,84.74
2018-12-08T03:40:20.902Z,85.61
2018-12-08T03:42:48.122Z,86.85
2018-12-08T03:45:15.296Z,86.32
2018-12-08T03:47:42.478Z,87.39
2018-12-08T03:50:09.675Z,87.58
2018-12-08T03:52:37.096Z,88.01
2018-12-08T03:55:04.462Z,86.43
2018-12-08T03:57:31.659Z,86.55
2018-12-08T03:59:58.815Z,87.07
2018-12-08T04:02:26.130Z,86.18
2018-12-08T04:04:53.350Z,87.72
2018-12-08T04:07:20.560Z,87.37
2018-12-08T04:09:47.758Z,86.99
2018-12-08T04:12:14.959Z,87.60
2018-12-08T04:14:42.100Z,87.32
2018-12-08T04:17:09.263Z,87.77
2018-12-08T04:19:36.490Z,86.22
2018-12-08T04:22:03.655Z,86.56
2018-12-08T04:24:31.039Z,86.80
2018-12-08T04:26:58.344Z,85.64
2018-12-08T04:29:25.542Z,85.52
2018-12-08T04:31:52.786Z,88.37
2018-12-08T04:34:20.031Z,86.44
2018-12-08T04:36:47.199Z,87.65
2018-12-08T04:39:14.398Z,88.96
2018-12-08T04:41:41.623Z,89.34
2018-12-08T04:44:08.777Z,90.35
2018-12-08T04:46:35.958Z,91.35
2018-12-08T04:49:03.186Z,90.68
2018-12-08T04:51:30.481Z,91.81
2018-12-08T04:53:57.634Z,93.33
2018-12-08T04:56:24.847Z,92.35
2018-12-08T04:58:51.945Z,93.34
2018-12-08T05:01:19.083Z,93.35
2018-12-08T05:03:46.311Z,93.10
2018-12-08T05:06:13.725Z,92.88
2018-12-08T05:08:40.851Z,94.67
2018-12-08T05:11:08.064Z,93.41
2018-12-08T05:13:35.238Z,92.04
2018-12-08T05:16:02.398Z,92.82
2018-12-08T05:18:29.623Z,92.60
2018-12-08T05:20:56.755Z,92.25
2018-12-08T05:23:23.923Z,93.05
2018-12-08T05:25:51.106Z,90.58
2018-12-08T05:28:18.248Z,93.19
2018-12-08T05:30:45.391Z,92.01
2018-12-08T05:33:12.650Z,92.40
2018-12-08T05:35:39.788Z,90.65
2018-12-08T05:38:06.955Z,91.32
2018-12-08T05:40:34.220Z,89.69
2018-12-08T05:43:01.346Z,90.14
2018-12-08T05:45:28.595Z,89.96
2018-12-08T05:47:55.820Z,89.92
2018-12-08T05:50:22.955Z,89.38
2018-12-08T05:52:50.094Z,89.68
2018-12-08T05:55:17.321Z,89.94
2018-12-08T05:57:44.495Z,90.00
2018-12-08T06:00:11.633Z,91.01
2018-12-08T06:02:38.822Z,89.21
2018-12-08T06:05:06.978Z,90.96
2018-12-08T06:07:34.151Z,88.03
2018-12-08T06:10:01.602Z,88.59
2018-12-08T06:12:28.749Z,90.50
2018-12-08T06:14:55.891Z,88.11
2018-12-08T06:17:23.090Z,90.58
2018-12-08T06:19:50.292Z,88.84
2018-12-08T06:22:17.447Z,88.85
2018-12-08T06:24:44.689Z,89.23
2018-12-08T06:27:21.803Z,91.32
2018-12-08T06:29:49.029Z,92.56
2018-12-08T06:32:16.188Z,93.50
2018-12-08T06:34:43.587Z,93.85
2018-12-08T06:37:10.776Z,94.18
2018-12-08T06:39:37.908Z,95.24
2018-12-08T06:42:05.154Z,94.62
2018-12-08T06:44:32.403Z,95.42
2018-12-08T06:46:59.510Z,95.50
2018-12-08T06:49:26.711Z,96.08
2018-12-08T06:51:54.032Z,95.56
2018-12-08T06:54:21.209Z,94.43
2018-12-08T06:56:48.376Z,96.74
2018-12-08T06:59:15.591Z,98.07
2018-12-08T07:01:42.759Z,97.93
2018-12-08T07:04:10.267Z,97.68
2018-12-08T07:06:41.362Z,99.73
2018-12-08T07:09:08.929Z,99.14
2018-12-08T07:11:43.928Z,98.93
2018-12-08T07:27:36.017Z,98.36
2018-12-08T07:30:04.686Z,96.20
2018-12-08T07:32:38.670Z,94.08
2018-12-08T07:35:01.500Z,95.57
2018-12-08T07:40:51.209Z,94.55
2018-12-08T07:43:19.710Z,94.33
2018-12-08T07:45:47.171Z,94.69
2018-12-08T07:48:14.477Z,94.51
2018-12-08T07:50:41.622Z,92.88
2018-12-08T07:53:08.770Z,92.42
2018-12-08T07:55:36.011Z,93.71
2018-12-08T07:58:03.223Z,91.29
2018-12-08T08:00:30.387Z,91.19
2018-12-08T08:02:57.588Z,90.93
2018-12-08T08:05:24.744Z,92.97
2018-12-08T08:07:51.923Z,90.69
2018-12-08T08:10:19.143Z,91.07
2018-12-08T08:12:46.335Z,89.99
2018-12-08T08:15:13.495Z,89.83
2018-12-08T08:17:40.654Z,87.13
2018-12-08T08:20:09.771Z,89.22
2018-12-08T08:25:03.586Z,85.11
2018-12-08T08:27:30.875Z,85.90
2018-12-08T08:29:58.104Z,85.06
2018-12-08T08:32:25.404Z,87.53
2018-12-08T08:34:52.556Z,86.01
2018-12-08T08:37:19.720Z,86.64
2018-12-08T08:39:46.932Z,83.56
2018-12-08T08:42:14.176Z,85.88
2018-12-08T08:44:41.413Z,85.92
2018-12-08T08:47:08.720Z,84.11
2018-12-08T08:49:35.998Z,85.61
2018-12-08T08:52:03.262Z,85.74
2018-12-08T08:54:30.480Z,85.25
2018-12-08T08:56:57.708Z,84.97
2018-12-08T08:59:24.884Z,85.03
2018-12-08T09:01:52.104Z,85.23
2018-12-08T09:04:19.248Z,85.01
2018-12-08T09:06:46.401Z,85.47
2018-12-08T09:09:13.799Z,86.13
2018-12-08T09:11:40.924Z,84.96
2018-12-08T09:14:13.206Z,84.97
2018-12-08T09:16:37.426Z,85.61
2018-12-08T09:19:04.616Z,87.25
2018-12-08T09:21:31.880Z,87.69
2018-12-08T09:23:59.086Z,86.22
2018-12-08T09:26:26.252Z,84.20
2018-12-08T09:28:53.455Z,84.08
2018-12-08T09:31:20.678Z,84.43
2018-12-08T09:33:47.872Z,85.61
2018-12-08T09:36:15.251Z,84.37
2018-12-08T09:38:42.539Z,83.40
2018-12-08T09:41:09.721Z,85.15
2018-12-08T09:43:36.861Z,84.36
2018-12-08T09:46:04.066Z,84.56
2018-12-08T09:48:31.247Z,82.52
2018-12-08T09:50:58.398Z,82.55
2018-12-08T09:53:25.611Z,85.53
2018-12-08T09:55:52.740Z,85.80
2018-12-08T09:58:19.891Z,82.76
2018-12-08T10:00:47.184Z,84.86
2018-12-08T10:03:14.319Z,82.87
2018-12-08T10:05:41.520Z,81.97
2018-12-08T10:08:08.707Z,80.38
2018-12-08T10:10:35.880Z,79.97
2018-12-08T10:13:03.263Z,80.11
2018-12-08T10:15:30.473Z,82.36
2018-12-08T10:17:57.642Z,80.97
2018-12-08T10:20:24.805Z,81.03
2018-12-08T10:22:52.011Z,80.57
2018-12-08T10:25:19.189Z,79.72
2018-12-08T10:27:46.333Z,79.56
2018-12-08T10:30:13.757Z,79.45
2018-12-08T10:32:41.050Z,80.13
2018-12-08T10:35:10.414Z,79.60
2018-12-08T10:37:38.218Z,80.44
2018-12-08T10:40:05.579Z,80.63
2018-12-08T10:42:32.768Z,80.03
2018-12-08T10:45:00.032Z,80.53
2018-12-08T10:47:27.370Z,80.83
2018-12-08T10:49:54.653Z,78.02
2018-12-08T10:52:21.915Z,79.07
2018-12-08T10:54:49.091Z,79.58
2018-12-08T10:57:16.215Z,78.95
2018-12-08T10:59:43.434Z,79.19
2018-12-08T11:02:15.187Z,79.81
2018-12-08T11:04:42.342Z,80.43
2018-12-08T11:07:09.599Z,78.18
2018-12-08T11:09:36.707Z,79.21
2018-12-08T11:12:03.970Z,77.58
2018-12-08T11:14:31.172Z,77.81
2018-12-08T11:16:58.299Z,78.24
2018-12-08T11:19:25.531Z,78.63
2018-12-08T11:21:52.695Z,78.46
2018-12-08T11:24:19.820Z,79.16
2018-12-08T11:26:46.939Z,78.59
2018-12-08T11:29:14.124Z,77.12
2018-12-08T11:31:41.247Z,75.31
2018-12-08T11:34:08.383Z,76.23
2018-12-08T11:36:35.575Z,77.20
2018-12-08T11:39:04.211Z,74.41
2018-12-08T11:41:31.359Z,74.78
2018-12-08T11:43:58.530Z,75.79
2018-12-08T11:46:25.635Z,75.72
2018-12-08T11:48:52.795Z,74.58
2018-12-08T11:51:19.987Z,75.06
2018-12-08T11:53:47.127Z,75.36
2018-12-08T11:56:14.282Z,73.92
2018-12-08T11:58:41.477Z,76.36
2018-12-08T12:01:08.630Z,74.07
2018-12-08T12:03:35.839Z,74.04
2018-12-08T12:06:03.144Z,74.53
2018-12-08T12:08:30.370Z,73.30
2018-12-08T12:10:57.512Z,74.28
2018-12-08T12:13:24.702Z,74.73
2018-12-08T12:15:51.843Z,74.87
2018-12-08T12:18:19.027Z,73.91
2018-12-08T12:20:46.223Z,73.54
2018-12-08T12:23:13.354Z,74.22
2018-12-08T12:25:40.708Z,74.41
2018-12-08T12:28:08.028Z,75.45
2018-12-08T12:30:35.283Z,75.97
2018-12-08T12:33:02.420Z,76.53
2018-12-08T12:35:29.619Z,76.07
2018-12-08T12:37:56.787Z,76.17
2018-12-08T12:40:24.010Z,76.23
2018-12-08T12:42:51.178Z,77.35
2018-12-08T12:45:18.423Z,76.18
2018-12-08T12:47:45.564Z,76.98
2018-12-08T12:50:12.937Z,75.96
2018-12-08T12:52:40.160Z,77.21
2018-12-08T12:55:07.459Z,76.88
2018-12-08T12:57:34.728Z,76.94
2018-12-08T13:00:02.082Z,76.64
2018-12-08T13:02:29.226Z,75.59
2018-12-08T13:04:56.581Z,75.46
2018-12-08T13:07:23.817Z,75.61
2018-12-08T13:09:50.989Z,77.26
2018-12-08T13:12:18.341Z,77.39
2018-12-08T13:14:45.463Z,75.69
2018-12-08T13:17:12.631Z,75.39
2018-12-08T13:19:39.859Z,75.38
2018-12-08T13:22:07.021Z,75.94
2018-12-08T13:24:34.159Z,77.06
2018-12-08T13:27:01.374Z,75.97
2018-12-08T13:29:28.530Z,76.54
2018-12-08T13:31:55.671Z,76.62
2018-12-08T13:34:27.542Z,76.04
2018-12-08T13:36:54.819Z,77.35
2018-12-08T13:39:22.019Z,75.65
2018-12-08T13:41:49.262Z,75.84
2018-12-08T13:44:27.964Z,77.23
2018-12-08T13:46:55.167Z,75.72
2018-12-08T13:49:22.359Z,76.35
2018-12-08T13:51:49.541Z,78.17
2018-12-08T13:54:28.226Z,88.18
2018-12-08T13:56:55.407Z,92.03
2018-12-08T13:59:22.580Z,92.84
2018-12-08T14:01:49.778Z,96.62
2018-12-08T14:04:16.957Z,99.70
2018-12-08T14:06:44.160Z,100.00
2018-12-08T14:09:11.382Z,100.00
2018-12-08T14:11:38.537Z,100.00
2018-12-08T14:14:05.692Z,100.00
2018-12-08T14:16:32.881Z,100.00
2018-12-08T14:19:00.050Z,100.00
2018-12-08T14:21:27.197Z,100.00
2018-12-08T14:23:54.400Z,100.00
2018-12-08T14:26:21.558Z,100.00
2018-12-08T14:28:48.715Z,100.00
2018-12-08T14:31:16.161Z,100.00
2018-12-08T14:33:43.346Z,100.00
2018-12-08T14:36:10.482Z,100.00
2018-12-08T14:38:37.701Z,100.00
2018-12-08T14:41:04.887Z,100.00
2018-12-08T14:43:32.048Z,100.00
2018-12-08T14:45:59.263Z,100.00
2018-12-08T14:48:27.426Z,100.00
2018-12-08T14:50:54.782Z,100.00
2018-12-08T14:53:22.167Z,100.00
2018-12-08T14:55:49.421Z,100.00
2018-12-08T14:58:16.566Z,100.00
2018-12-08T15:00:44.583Z,100.00
2018-12-08T15:03:14.565Z,100.00
2018-12-08T15:05:41.956Z,100.00
2018-12-08T15:08:09.283Z,100.00
2018-12-08T15:10:36.842Z,98.93
2018-12-08T15:13:04.056Z,100.00
2018-12-08T15:15:31.362Z,98.91
2018-12-08T15:18:02.948Z,97.68
2018-12-08T15:20:30.108Z,98.30
2018-12-08T15:22:57.359Z,100.00
2018-12-08T15:25:24.500Z,99.11
2018-12-08T15:27:51.685Z,100.00
2018-12-08T15:30:18.888Z,97.36
2018-12-08T15:32:47.144Z,98.88
2018-12-08T15:35:14.391Z,96.50
2018-12-08T15:37:41.612Z,98.24
2018-12-08T15:40:09.465Z,97.64
2018-12-08T15:42:36.626Z,94.94
2018-12-08T15:45:05.131Z,95.36
2018-12-08T15:47:32.304Z,95.57
2018-12-08T15:49:59.446Z,95.48
2018-12-08T15:52:26.787Z,95.68
2018-12-08T15:54:53.991Z,94.13
2018-12-08T15:57:23.126Z,93.72
2018-12-08T15:59:51.510Z,95.56
2018-12-08T16:02:18.834Z,96.09
2018-12-08T16:04:46.037Z,92.81
2018-12-08T16:07:13.295Z,94.43
2018-12-08T16:09:40.534Z,93.49
2018-12-08T16:12:07.762Z,93.99
2018-12-08T16:14:35.023Z,93.53
2018-12-08T16:17:02.144Z,93.23
2018-12-08T16:19:36.058Z,93.36
2018-12-08T16:22:03.287Z,93.56
2018-12-08T16:24:30.430Z,93.93
2018-12-08T16:26:57.906Z,93.07
2018-12-08T16:29:25.087Z,94.04
2018-12-08T16:31:52.224Z,94.80
2018-12-08T16:34:19.392Z,94.37
2018-12-08T16:36:46.512Z,94.31
2018-12-08T16:39:13.679Z,96.00
2018-12-08T16:41:40.974Z,92.46
2018-12-08T16:44:08.120Z,92.17
2018-12-08T16:46:35.366Z,93.03
2018-12-08T16:49:02.600Z,91.76
2018-12-08T16:51:29.866Z,92.76
2018-12-08T16:53:58.560Z,92.35
2018-12-08T16:56:25.908Z,93.30
2018-12-08T16:58:53.066Z,90.88
2018-12-08T17:01:20.369Z,90.10
2018-12-08T17:03:47.529Z,90.72
2018-12-08T17:06:14.751Z,89.81
2018-12-08T17:08:42.052Z,90.38
2018-12-08T17:11:09.413Z,90.88
2018-12-08T17:13:36.563Z,89.67
2018-12-08T17:16:03.699Z,88.80
2018-12-08T17:18:30.979Z,88.98
2018-12-08T17:20:58.263Z,88.27
2018-12-08T17:23:25.399Z,90.86
2018-12-08T17:25:52.963Z,89.45
2018-12-08T17:28:20.109Z,88.71
2018-12-08T17:30:47.279Z,88.41
2018-12-08T17:33:15.413Z,89.02
2018-12-08T17:35:42.679Z,87.82
2018-12-08T17:38:09.906Z,88.18
2018-12-08T17:40:37.295Z,90.01
2018-12-08T17:43:04.418Z,90.36
2018-12-08T17:45:31.662Z,88.81
2018-12-08T17:47:58.911Z,89.08
2018-12-08T17:50:26.203Z,87.58
2018-12-08T17:52:53.473Z,88.06
2018-12-08T17:55:20.655Z,89.90
2018-12-08T17:57:47.818Z,89.25
2018-12-08T18:00:15.089Z,88.70
2018-12-08T18:02:42.339Z,88.92
2018-12-08T18:05:09.495Z,87.97
2018-12-08T18:07:36.734Z,88.10
2018-12-08T18:10:04.983Z,88.83
2018-12-08T18:12:32.240Z,89.17
2018-12-08T18:14:59.394Z,89.03
2018-12-08T18:17:26.748Z,88.99
2018-12-08T18:19:53.857Z,87.85
2018-12-08T18:22:21.156Z,88.08
2018-12-08T18:24:48.684Z,88.34
2018-12-08T18:27:15.796Z,89.05
2018-12-08T18:29:42.949Z,87.85
2018-12-08T18:32:10.200Z,87.86
2018-12-08T18:34:37.331Z,88.45
2018-12-08T18:37:04.450Z,88.83
2018-12-08T18:39:31.622Z,89.38
2018-12-08T18:42:00.813Z,89.32
2018-12-08T18:44:27.923Z,89.62
2018-12-08T18:46:55.099Z,89.51
2018-12-08T18:49:22.219Z,88.53
2018-12-08T18:51:49.319Z,88.54
2018-12-08T18:54:16.573Z,88.16
2018-12-08T18:56:43.686Z,89.63
2018-12-08T18:59:11.005Z,88.90
2018-12-08T19:01:38.211Z,87.81
2018-12-08T19:04:05.383Z,89.33
2018-12-08T19:06:32.511Z,88.54
2018-12-08T19:08:59.799Z,89.08
2018-12-08T19:11:27.023Z,89.72
2018-12-08T19:13:54.245Z,89.35
2018-12-08T19:16:21.444Z,89.72
2018-12-08T19:18:48.632Z,88.28
2018-12-08T19:21:15.789Z,88.60
2018-12-08T19:23:43.809Z,90.26
2018-12-08T19:26:11.295Z,89.38
2018-12-08T19:28:38.387Z,89.83
2018-12-08T19:31:06.302Z,89.80
2018-12-08T19:33:33.455Z,91.16
2018-12-08T19:36:00.615Z,91.12
2018-12-08T19:38:27.906Z,91.27
2018-12-08T19:40:55.075Z,91.68
2018-12-08T19:43:26.191Z,91.84
2018-12-08T19:45:53.398Z,92.75
2018-12-08T19:48:20.514Z,93.18
2018-12-08T19:50:48.322Z,91.86
2018-12-08T19:53:15.563Z,93.10
2018-12-08T19:55:42.796Z,93.16
2018-12-08T19:58:09.936Z,92.79
2018-12-08T20:00:37.281Z,92.00
2018-12-08T20:03:04.388Z,93.50
2018-12-08T20:05:31.507Z,94.08
2018-12-08T20:07:58.746Z,94.15
2018-12-08T20:10:25.877Z,94.71
2018-12-08T20:12:53.651Z,95.17
2018-12-08T20:15:20.975Z,95.77
2018-12-08T20:17:48.127Z,96.03
2018-12-08T20:20:15.224Z,96.58
2018-12-08T20:22:42.707Z,95.68
2018-12-08T20:25:10.676Z,95.98
2018-12-08T20:27:37.779Z,96.45
2018-12-08T20:30:06.463Z,97.53
2018-12-08T20:32:33.589Z,97.64
2018-12-08T20:35:00.677Z,96.61
2018-12-08T20:37:29.027Z,96.73
2018-12-08T20:39:57.646Z,95.28
2018-12-08T20:42:24.897Z,95.93
2018-12-08T20:44:52.125Z,95.92
2018-12-08T20:47:19.238Z,95.57
2018-12-08T20:49:46.522Z,95.34
2018-12-08T20:52:13.706Z,95.15
2018-12-08T20:54:40.864Z,96.01
2018-12-08T20:57:08.197Z,95.81
2018-12-08T20:59:35.349Z,96.91
2018-12-08T21:02:02.611Z,97.31
2018-12-08T21:04:29.774Z,96.52
2018-12-08T21:06:57.087Z,96.79
2018-12-08T21:09:24.178Z,97.13
2018-12-08T21:11:51.375Z,96.19
2018-12-08T21:14:19.246Z,96.28
2018-12-08T21:16:46.447Z,97.06
2018-12-08T21:19:13.561Z,97.45
2018-12-08T21:21:40.831Z,98.24
2018-12-08T21:24:07.934Z,98.61
2018-12-08T21:26:35.360Z,98.58
2018-12-08T21:29:02.870Z,98.78
2018-12-08T21:31:31.067Z,99.04
2018-12-08T21:33:58.254Z,99.69
2018-12-08T21:36:25.555Z,98.00
2018-12-08T21:38:53.650Z,98.66
2018-12-08T21:41:20.781Z,99.08
2018-12-08T21:43:48.039Z,98.52
2018-12-08T21:46:15.146Z,99.07
2018-12-08T21:48:42.283Z,99.39
2018-12-08T21:51:09.623Z,99.99
2018-12-08T21:53:36.759Z,100.00
2018-12-08T21:56:03.978Z,100.00
2018-12-08T21:58:31.358Z,100.00
2018-12-08T22:00:58.572Z,100.00
2018-12-08T22:03:25.690Z,100.00
2018-12-08T22:05:52.851Z,100.00
2018-12-08T22:08:19.953Z,100.00
2018-12-08T22:10:47.080Z,100.00
2018-12-08T22:13:14.306Z,100.00
2018-12-08T22:15:41.443Z,100.00
2018-12-08T22:18:08.942Z,100.00
2018-12-08T22:20:36.111Z,100.00
2018-12-08T22:23:03.260Z,100.00
2018-12-08T22:25:30.406Z,100.00
2018-12-08T22:27:57.568Z,99.29
2018-12-08T22:30:24.670Z,99.51
2018-12-08T22:32:51.794Z,100.00
2018-12-08T22:35:18.974Z,98.64
2018-12-08T22:37:46.220Z,100.00
2018-12-08T22:40:13.355Z,100.00
2018-12-08T22:42:40.644Z,99.64
2018-12-08T22:45:07.883Z,99.18
2018-12-08T22:47:35.003Z,98.42
2018-12-08T22:50:02.195Z,98.15
2018-12-08T22:52:30.505Z,97.90
2018-12-08T22:54:57.627Z,98.50
2018-12-08T22:57:24.796Z,98.40
2018-12-08T22:59:51.909Z,99.62
2018-12-08T23:02:19.055Z,100.00
2018-12-08T23:04:46.229Z,100.00
2018-12-08T23:07:13.347Z,100.00
2018-12-08T23:09:40.451Z,100.00
2018-12-08T23:12:07.740Z,100.00
2018-12-08T23:14:34.877Z,100.00
2018-12-08T23:17:01.986Z,100.00
2018-12-08T23:19:29.208Z,100.00
2018-12-08T23:21:56.382Z,100.00
2018-12-08T23:24:23.483Z,100.00
2018-12-08T23:26:50.664Z,100.00
2018-12-08T23:29:17.763Z,100.00
2018-12-08T23:31:44.870Z,100.00
2018-12-08T23:34:12.042Z,100.00
2018-12-08T23:36:39.176Z,100.00
2018-12-08T23:39:06.458Z,100.00
2018-12-08T23:41:33.623Z,100.00
2018-12-08T23:44:00.775Z,100.00
2018-12-08T23:46:27.879Z,100.00
2018-12-08T23:48:55.051Z,100.00
2018-12-08T23:51:22.143Z,100.00
2018-12-08T23:53:49.247Z,100.00
2018-12-08T23:56:16.531Z,100.00
2018-12-08T23:58:43.668Z,100.00
